Time;durP1;ratioP1;P1;durP2;ratioP2;P2;SDS_P1;SDS_P2;PMS_P1;PMS_P2;Temp;Humidity;BMP_temperature;BMP_pressure;BME280_temperature;BME280_humidity;BME280_pressure;Samples;Min_cycle;Max_cycle;Signal;HPM_P1;HPM_P2
2021/10/26 09:17:10;;;;;;;20.58;16.83;;;;;;;;;;4971433;28;20394;-80
2021/10/26 09:19:56;;;;;;;839.25;94.57;;;;;;;;;;5232445;23;20086;-81
2021/10/26 09:22:32;;;;;;;18.20;13.73;;;;;;;;;;4991876;28;20058;-81
2021/10/26 09:25:05;;;;;;;16.55;14.10;;;;;;;;;;4982038;28;20076;-82
2021/10/26 09:27:58;;;;;;;20.40;14.18;;;;;;;;;;4995933;28;20042;-82
2021/10/26 09:30:37;;;;;;;19.70;14.80;;;;;;;;;;4995951;28;20050;-82
2021/10/26 09:33:07;;;;;;;16.52;14.23;;;;;;;;;;4979980;28;20043;-82
2021/10/26 09:35:38;;;;;;;20.38;14.63;;;;;;;;;;4995399;28;20038;-82
2021/10/26 09:38:05;;;;;;;17.50;12.60;;;;;;;;;;4996013;28;20069;-81
2021/10/26 09:40:54;;;;;;;19.60;14.02;;;;;;;;;;4995037;28;20030;-82
2021/10/26 09:43:49;;;;;;;15.27;12.35;;;;;;;;;;4997025;28;20042;-82
2021/10/26 09:46:17;;;;;;;16.33;12.38;;;;;;;;;;4976536;28;20043;-82
2021/10/26 09:48:43;;;;;;;16.05;12.30;;;;;;;;;;4978002;28;20530;-81
2021/10/26 09:51:21;;;;;;;16.05;12.07;;;;;;;;;;4996569;28;20022;-82
2021/10/26 09:53:57;;;;;;;12.95;10.52;;;;;;;;;;5011424;28;20045;-81
2021/10/26 09:56:24;;;;;;;13.18;8.50;;;;;;;;;;4995275;28;20026;-81
2021/10/26 09:59:13;;;;;;;15.35;9.48;;;;;;;;;;4995423;28;20027;-82
2021/10/26 10:01:51;;;;;;;13.15;7.35;;;;;;;;;;4994556;28;20511;-82
2021/10/26 10:04:33;;;;;;;10.50;7.47;;;;;;;;;;4994981;28;20487;-82
2021/10/26 10:07:02;;;;;;;9.90;5.95;;;;;;;;;;4991905;28;20470;-82
2021/10/26 10:09:30;;;;;;;8.73;4.15;;;;;;;;;;4990616;28;20030;-81
2021/10/26 10:12:06;;;;;;;7.72;4.30;;;;;;;;;;4994192;28;20027;-81
2021/10/26 10:14:39;;;;;;;8.43;4.28;;;;;;;;;;4994497;28;20101;-81
2021/10/26 10:17:09;;;;;;;11.50;4.25;;;;;;;;;;4995103;28;20022;-82
2021/10/26 10:19:35;;;;;;;7.70;4.15;;;;;;;;;;5009071;28;20038;-82
2021/10/26 10:22:07;;;;;;;10.27;4.75;;;;;;;;;;4994303;28;20094;-82
2021/10/26 10:24:38;;;;;;;10.15;4.30;;;;;;;;;;4994402;28;20077;-82
2021/10/26 10:27:05;;;;;;;9.82;6.47;;;;;;;;;;4980656;28;20030;-82
2021/10/26 10:29:31;;;;;;;23.17;15.73;;;;;;;;;;4980112;28;20094;-82
2021/10/26 10:31:57;;;;;;;10.75;7.15;;;;;;;;;;4981074;28;20030;-81
2021/10/26 10:34:24;;;;;;;14.45;7.15;;;;;;;;;;4979297;28;20023;-82
2021/10/26 10:36:53;;;;;;;10.85;5.13;;;;;;;;;;4981196;28;20070;-82
2021/10/26 10:39:24;;;;;;;8.40;4.10;;;;;;;;;;4981787;28;20031;-82
2021/10/26 10:42:11;;;;;;;9.48;4.20;;;;;;;;;;4981946;28;20043;-82
2021/10/26 10:44:39;;;;;;;8.50;4.20;;;;;;;;;;4981360;28;20030;-81
2021/10/26 10:47:47;;;;;;;10.18;4.50;;;;;;;;;;4979162;28;20039;-83
2021/10/26 10:50:57;;;;;;;6.28;4.20;;;;;;;;;;4977171;28;20094;-82
2021/10/26 10:53:35;;;;;;;7.85;4.82;;;;;;;;;;4988469;28;20450;-82
2021/10/26 10:56:36;;;;;;;8.85;5.03;;;;;;;;;;4984259;28;20625;-82
2021/10/26 10:59:03;;;;;;;9.05;4.35;;;;;;;;;;4990277;28;20050;-82
2021/10/26 11:01:52;;;;;;;10.32;5.50;;;;;;;;;;4965711;28;20039;-82
2021/10/26 11:04:25;;;;;;;10.30;4.82;;;;;;;;;;4961337;29;20031;-82
2021/10/26 11:06:59;;;;;;;11.40;7.18;;;;;;;;;;4961576;29;20521;-82
2021/10/26 11:09:31;;;;;;;10.23;5.45;;;;;;;;;;4962451;29;20034;-82
2021/10/26 11:12:22;;;;;;;11.52;4.80;;;;;;;;;;4960740;29;20039;-82
2021/10/26 11:15:02;;;;;;;9.30;5.10;;;;;;;;;;4961692;28;20046;-82
2021/10/26 11:17:40;;;;;;;8.83;5.83;;;;;;;;;;4961771;29;20050;-82
2021/10/26 11:20:40;;;;;;;9.82;5.82;;;;;;;;;;4962776;28;20385;-82
2021/10/26 11:23:15;;;;;;;7.28;4.82;;;;;;;;;;4956198;29;20042;-81
2021/10/26 11:25:45;;;;;;;8.57;4.97;;;;;;;;;;4959974;28;20039;-82
2021/10/26 11:28:27;;;;;;;9.70;4.78;;;;;;;;;;4960821;29;20047;-81
2021/10/26 11:31:03;;;;;;;7.53;4.57;;;;;;;;;;4964151;29;20059;-82
2021/10/26 11:37:06;;;;;;;7.93;4.25;;;;;;;;;;4999774;28;20061;-82
2021/10/26 11:40:46;;;;;;;9.05;4.00;;;;;;;;;;4992306;28;20042;-83
2021/10/26 11:43:30;;;;;;;6.28;3.75;;;;;;;;;;4988529;28;20154;-83
2021/10/26 11:46:59;;;;;;;5.35;3.22;;;;;;;;;;4988463;28;20093;-82
2021/10/26 11:49:48;;;;;;;4.45;2.88;;;;;;;;;;4983950;28;20071;-81
2021/10/26 11:52:14;;;;;;;6.32;3.58;;;;;;;;;;4964812;28;20038;-80
2021/10/26 11:54:51;;;;;;;9.68;4.68;;;;;;;;;;4963170;28;20424;-80
2021/10/26 11:57:22;;;;;;;8.57;4.22;;;;;;;;;;4954641;28;20071;-81
2021/10/26 11:59:48;;;;;;;11.70;4.40;;;;;;;;;;4975994;28;20043;-81
2021/10/26 12:02:16;;;;;;;6.97;2.80;;;;;;;;;;4977293;28;20082;-82
2021/10/26 12:04:49;;;;;;;6.40;3.40;;;;;;;;;;4962803;28;20385;-81
2021/10/26 12:07:16;;;;;;;7.68;2.85;;;;;;;;;;4975623;28;20070;-82
2021/10/26 12:09:52;;;;;;;4.07;2.17;;;;;;;;;;4977190;28;20037;-82
2021/10/26 12:12:42;;;;;;;5.65;3.50;;;;;;;;;;4961646;28;20041;-82
2021/10/26 12:15:10;;;;;;;5.55;2.10;;;;;;;;;;4962181;29;20480;-81
2021/10/26 12:17:37;;;;;;;8.75;3.78;;;;;;;;;;4972197;28;20027;-81
2021/10/26 12:20:41;;;;;;;9.45;4.68;;;;;;;;;;4971892;28;20178;-82
2021/10/26 12:23:07;;;;;;;4.03;2.50;;;;;;;;;;4974344;28;20035;-82
2021/10/26 12:25:55;;;;;;;7.35;3.20;;;;;;;;;;4986638;28;20023;-82
2021/10/26 12:28:30;;;;;;;6.25;3.00;;;;;;;;;;4990302;28;20049;-83
2021/10/26 12:30:55;;;;;;;5.55;2.10;;;;;;;;;;4982800;28;20563;-80
2021/10/26 12:33:27;;;;;;;4.53;1.85;;;;;;;;;;4988788;28;20113;-82
2021/10/26 12:35:58;;;;;;;5.28;2.05;;;;;;;;;;4972621;28;20093;-82
2021/10/26 12:38:29;;;;;;;6.53;2.00;;;;;;;;;;4972834;28;20085;-83
2021/10/26 12:41:02;;;;;;;6.75;1.95;;;;;;;;;;4973353;28;20547;-84
2021/10/26 12:43:28;;;;;;;2.85;1.85;;;;;;;;;;4973100;28;20126;-85
2021/10/26 12:45:57;;;;;;;4.55;2.10;;;;;;;;;;4972919;28;20118;-84
2021/10/26 12:48:30;;;;;;;2.95;1.95;;;;;;;;;;4973774;28;20111;-82
2021/10/26 12:51:01;;;;;;;4.53;2.00;;;;;;;;;;4972290;28;20065;-84
2021/10/26 12:53:36;;;;;;;4.78;1.95;;;;;;;;;;4972837;28;20495;-84
2021/10/26 12:56:22;;;;;;;4.95;2.03;;;;;;;;;;4972722;28;20058;-84
2021/10/26 12:58:56;;;;;;;8.00;2.78;;;;;;;;;;4972679;28;20033;-85
2021/10/26 13:01:32;;;;;;;5.22;2.50;;;;;;;;;;4972859;28;20034;-83
2021/10/26 13:04:00;;;;;;;18.13;7.68;;;;;;;;;;4972648;28;20121;-83
2021/10/26 13:06:32;;;;;;;5.22;2.20;;;;;;;;;;4973250;28;20034;-81
2021/10/26 13:09:01;;;;;;;13.77;8.63;;;;;;;;;;4972775;28;20026;-81
2021/10/26 13:11:38;;;;;;;5.57;2.33;;;;;;;;;;4972467;28;20034;-84
2021/10/26 13:14:12;;;;;;;6.93;2.78;;;;;;;;;;4972738;28;20391;-83
2021/10/26 13:16:48;;;;;;;5.00;1.95;;;;;;;;;;4972376;28;20023;-83
2021/10/26 13:19:32;;;;;;;4.78;2.58;;;;;;;;;;4972326;28;20047;-83
2021/10/26 13:22:11;;;;;;;4.53;2.40;;;;;;;;;;4972692;28;20035;-82
2021/10/26 13:24:41;;;;;;;5.18;2.58;;;;;;;;;;4969791;28;20487;-83
2021/10/26 13:27:08;;;;;;;7.53;2.83;;;;;;;;;;4987405;28;20042;-83
2021/10/26 13:29:40;;;;;;;5.18;2.45;;;;;;;;;;4972335;28;20034;-81
2021/10/26 13:32:20;;;;;;;5.05;1.58;;;;;;;;;;4973236;28;20522;-83
2021/10/26 13:34:47;;;;;;;3.95;2.22;;;;;;;;;;4971054;28;20051;-81
2021/10/26 13:37:12;;;;;;;4.82;2.00;;;;;;;;;;4959959;28;20041;-83
2021/10/26 13:39:38;;;;;;;5.53;2.05;;;;;;;;;;4964099;28;20102;-82
2021/10/26 13:42:04;;;;;;;5.15;1.83;;;;;;;;;;4971681;28;20395;-83
2021/10/26 13:44:29;;;;;;;5.22;2.03;;;;;;;;;;4971619;28;20077;-84
2021/10/26 13:46:55;;;;;;;4.03;1.70;;;;;;;;;;4972460;28;20038;-84
2021/10/26 13:49:20;;;;;;;6.18;2.08;;;;;;;;;;4980064;28;20034;-84
2021/10/26 13:51:47;;;;;;;4.65;2.10;;;;;;;;;;4971096;28;20123;-83
2021/10/26 13:54:12;;;;;;;5.43;2.40;;;;;;;;;;4983469;28;20037;-85
2021/10/26 13:56:37;;;;;;;4.03;1.98;;;;;;;;;;4974572;28;20023;-83
2021/10/26 13:59:04;;;;;;;6.72;1.95;;;;;;;;;;4977036;28;20030;-82
2021/10/26 14:01:29;;;;;;;4.72;1.75;;;;;;;;;;4977051;28;20033;-81
2021/10/26 14:03:55;;;;;;;4.07;2.05;;;;;;;;;;4979300;28;20117;-80
2021/10/26 14:06:23;;;;;;;3.80;1.70;;;;;;;;;;4989917;28;20081;-81
2021/10/26 14:08:52;;;;;;;2.28;1.42;;;;;;;;;;4973531;28;20026;-82
2021/10/26 14:11:19;;;;;;;4.68;1.55;;;;;;;;;;4976036;28;20388;-83
2021/10/26 14:13:44;;;;;;;2.03;1.15;;;;;;;;;;4974628;28;20109;-82
2021/10/26 14:16:11;;;;;;;5.00;1.25;;;;;;;;;;4984684;28;20471;-82
2021/10/26 14:18:39;;;;;;;4.00;1.30;;;;;;;;;;4976405;28;20078;-84
2021/10/26 14:21:06;;;;;;;2.78;0.98;;;;;;;;;;4975017;28;20045;-84
2021/10/26 14:23:36;;;;;;;2.95;1.10;;;;;;;;;;4972924;28;20143;-84
2021/10/26 14:26:04;;;;;;;2.63;1.15;;;;;;;;;;4978736;28;20023;-84
2021/10/26 14:28:29;;;;;;;5.60;1.55;;;;;;;;;;4972545;28;20031;-83
2021/10/26 14:30:58;;;;;;;1.58;0.98;;;;;;;;;;4973622;28;20115;-84
2021/10/26 14:33:24;;;;;;;2.20;1.15;;;;;;;;;;4964089;28;20392;-84
2021/10/26 14:35:51;;;;;;;2.10;1.10;;;;;;;;;;4971762;28;20045;-85
2021/10/26 14:56:41;;;;;;;1.25;0.82;;;;;;;;;;4942163;28;20064;-80
2021/10/26 15:02:33;;;;;;;3.10;1.50;;;;;;;;;;4915927;28;20071;-83
2021/10/26 15:06:05;;;;;;;3.40;1.20;;;;;;;;;;4925751;29;20032;-85
2021/10/26 15:09:45;;;;;;;2.03;0.88;;;;;;;;;;4942631;28;20051;-86
2021/10/26 15:37:13;;;;;;;2.97;1.70;;;;;;;;;;4966096;23;20056;-82
2021/10/26 15:40:06;;;;;;;4.03;1.90;;;;;;;;;;4934635;29;20072;-86
2021/10/26 15:43:22;;;;;;;4.93;1.75;;;;;;;;;;4933750;29;20037;-84
2021/10/26 15:45:52;;;;;;;5.35;3.20;;;;;;;;;;4905395;29;20041;-85
2021/10/26 15:48:25;;;;;;;6.28;2.80;;;;;;;;;;4936455;29;20047;-86
2021/10/26 15:51:24;;;;;;;1.80;1.35;;;;;;;;;;4936644;29;20099;-86
2021/10/26 15:54:13;;;;;;;4.55;2.17;;;;;;;;;;4922153;29;20043;-84
2021/10/26 15:56:43;;;;;;;5.00;3.08;;;;;;;;;;4937553;29;20036;-86
2021/10/26 15:59:21;;;;;;;3.45;1.85;;;;;;;;;;4938054;29;20043;-86
2021/10/26 16:02:21;;;;;;;4.57;3.00;;;;;;;;;;4940424;29;20084;-85
2021/10/26 16:04:53;;;;;;;3.38;2.35;;;;;;;;;;4924252;29;20020;-84
2021/10/26 16:07:31;;;;;;;6.30;2.50;;;;;;;;;;4925406;29;20103;-82
2021/10/26 16:10:17;;;;;;;5.38;2.38;;;;;;;;;;4937834;29;20024;-83
2021/10/26 16:16:37;;;;;;;3.95;2.20;;;;;;;;;;4940745;29;20113;-84
2021/10/26 16:19:57;;;;;;;3.97;2.58;;;;;;;;;;4876434;29;20033;-84
2021/10/26 16:26:53;;;;;;;4.53;2.80;;;;;;;;;;4883651;29;20081;-85
2021/10/26 16:30:45;;;;;;;5.47;2.10;;;;;;;;;;4790339;29;20024;-84
2021/10/26 16:33:30;;;;;;;;;;;;;;;;;;4695031;30;20038;-86
2021/10/26 16:37:00;;;;;;;3.95;2.60;;;;;;;;;;4700109;30;19903;-83
2021/10/26 16:39:46;;;;;;;3.38;2.10;;;;;;;;;;4697379;30;20085;-82
2021/10/26 16:45:08;;;;;;;3.08;1.50;;;;;;;;;;4707105;30;20045;-81
2021/10/26 16:47:36;;;;;;;2.83;1.70;;;;;;;;;;4705432;30;20132;-81
2021/10/26 16:50:02;;;;;;;2.55;1.35;;;;;;;;;;4700875;30;20058;-81
2021/10/26 16:52:28;;;;;;;2.17;1.40;;;;;;;;;;4699727;30;20060;-81
2021/10/26 16:54:53;;;;;;;2.17;1.45;;;;;;;;;;4701221;30;20037;-82
2021/10/26 16:57:19;;;;;;;2.55;1.35;;;;;;;;;;4745595;30;20068;-81
2021/10/26 16:59:44;;;;;;;3.95;1.70;;;;;;;;;;4756922;30;20052;-81
2021/10/26 17:02:16;;;;;;;3.67;1.55;;;;;;;;;;4774477;30;20050;-82
2021/10/26 17:04:42;;;;;;;3.33;1.92;;;;;;;;;;4777024;30;20063;-81
2021/10/26 17:07:07;;;;;;;4.20;1.90;;;;;;;;;;4832513;29;20531;-81
2021/10/26 17:09:39;;;;;;;6.78;2.40;;;;;;;;;;4852867;29;20032;-81
2021/10/26 17:12:10;;;;;;;5.57;2.42;;;;;;;;;;4915964;29;20035;-82
2021/10/26 17:14:44;;;;;;;4.20;1.85;;;;;;;;;;4923332;29;20088;-82
2021/10/26 17:17:10;;;;;;;2.47;1.90;;;;;;;;;;4918367;29;20048;-81
2021/10/26 17:19:42;;;;;;;2.97;2.00;;;;;;;;;;4904448;29;20135;-82
2021/10/26 17:22:08;;;;;;;3.03;1.73;;;;;;;;;;4903751;29;20041;-80
2021/10/26 17:24:36;;;;;;;3.78;1.80;;;;;;;;;;4930153;29;20046;-82
2021/10/26 17:27:05;;;;;;;3.75;1.95;;;;;;;;;;4916409;29;20709;-81
2021/10/26 17:29:33;;;;;;;4.13;1.90;;;;;;;;;;4899701;29;20068;-82
2021/10/26 17:31:58;;;;;;;5.68;2.10;;;;;;;;;;4919908;29;20445;-82
2021/10/26 17:34:24;;;;;;;3.15;2.40;;;;;;;;;;4902760;29;20033;-82
2021/10/26 17:36:54;;;;;;;5.07;2.65;;;;;;;;;;4920779;29;20429;-82
2021/10/26 17:39:20;;;;;;;2.65;1.95;;;;;;;;;;4924523;29;20052;-83
2021/10/26 17:41:56;;;;;;;3.75;2.50;;;;;;;;;;4922439;29;20036;-81
2021/10/26 17:44:24;;;;;;;5.25;3.50;;;;;;;;;;4920867;29;20126;-82
2021/10/26 17:46:52;;;;;;;4.60;2.35;;;;;;;;;;4906264;29;20032;-82
2021/10/26 17:49:18;;;;;;;2.85;2.25;;;;;;;;;;4917683;29;20028;-81
2021/10/26 17:51:43;;;;;;;2.95;2.17;;;;;;;;;;4916319;29;20111;-80
2021/10/26 17:54:21;;;;;;;2.35;2.10;;;;;;;;;;4910904;29;20024;-82
2021/10/26 17:56:48;;;;;;;2.67;2.33;;;;;;;;;;4919813;29;20052;-81
2021/10/26 17:59:19;;;;;;;2.83;1.77;;;;;;;;;;4924982;29;20028;-83
2021/10/26 18:01:49;;;;;;;3.70;2.80;;;;;;;;;;4891734;29;20044;-81
2021/10/26 18:04:14;;;;;;;8.68;5.40;;;;;;;;;;4863452;29;20044;-81
2021/10/26 18:06:42;;;;;;;3.58;2.25;;;;;;;;;;4909619;29;20030;-82
2021/10/26 18:09:09;;;;;;;5.65;2.70;;;;;;;;;;4915252;29;20044;-80
2021/10/26 18:11:39;;;;;;;2.78;2.22;;;;;;;;;;4920365;29;20047;-82
2021/10/26 18:14:05;;;;;;;5.50;2.15;;;;;;;;;;4917289;29;20024;-81
2021/10/26 18:16:30;;;;;;;5.35;2.70;;;;;;;;;;4904312;29;20028;-81
2021/10/26 18:18:57;;;;;;;3.97;2.58;;;;;;;;;;4930790;29;20179;-80
2021/10/26 18:21:24;;;;;;;4.35;2.80;;;;;;;;;;4922524;29;20028;-81
2021/10/26 18:23:51;;;;;;;4.82;2.40;;;;;;;;;;4932933;29;20032;-81
2021/10/26 18:26:28;;;;;;;3.28;2.20;;;;;;;;;;4930799;29;20040;-82
2021/10/26 18:29:02;;;;;;;4.50;2.28;;;;;;;;;;4923035;29;20040;-82
2021/10/26 18:31:31;;;;;;;6.38;2.08;;;;;;;;;;4916949;29;20027;-81
2021/10/26 18:33:56;;;;;;;3.95;2.35;;;;;;;;;;4912224;29;20127;-82
2021/10/26 18:36:30;;;;;;;4.65;2.05;;;;;;;;;;4912926;29;20047;-82
2021/10/26 18:38:57;;;;;;;3.35;2.42;;;;;;;;;;4904322;29;20441;-82
2021/10/26 18:41:33;;;;;;;3.85;2.35;;;;;;;;;;4901328;29;20044;-82
2021/10/26 18:44:50;;;;;;;3.33;2.10;;;;;;;;;;4916046;29;20034;-83
2021/10/26 18:47:31;;;;;;;3.50;2.53;;;;;;;;;;4909123;29;20097;-82
2021/10/26 18:52:27;;;;;;;4.82;2.58;;;;;;;;;;4902601;29;19924;-82
2021/10/26 18:55:09;;;;;;;3.97;2.73;;;;;;;;;;4890542;29;20036;-82
2021/10/26 18:57:37;;;;;;;6.80;2.70;;;;;;;;;;4904741;29;20029;-81
2021/10/26 19:00:15;;;;;;;3.17;2.33;;;;;;;;;;4906185;29;20545;-82
2021/10/26 19:02:41;;;;;;;5.47;2.72;;;;;;;;;;4904757;29;20041;-82
2021/10/26 19:05:08;;;;;;;6.22;2.70;;;;;;;;;;4883292;29;20084;-82
2021/10/26 19:07:37;;;;;;;2.88;2.67;;;;;;;;;;4902669;29;20028;-82
2021/10/26 19:10:07;;;;;;;5.05;2.85;;;;;;;;;;4888024;29;20037;-82
2021/10/26 19:12:42;;;;;;;5.53;3.17;;;;;;;;;;4902865;29;20104;-81
2021/10/26 19:15:11;;;;;;;7.75;3.42;;;;;;;;;;4914803;29;20497;-82
2021/10/26 19:17:38;;;;;;;5.78;3.33;;;;;;;;;;4901256;29;20036;-82
2021/10/26 19:20:08;;;;;;;6.70;3.30;;;;;;;;;;4898671;29;20112;-81
2021/10/26 19:22:41;;;;;;;3.65;3.00;;;;;;;;;;4868777;29;20053;-83
2021/10/26 19:25:24;;;;;;;7.47;3.40;;;;;;;;;;4908801;29;20052;-82
2021/10/26 19:27:53;;;;;;;6.50;3.25;;;;;;;;;;4901483;29;20051;-82
2021/10/26 19:30:18;;;;;;;5.05;2.78;;;;;;;;;;4903154;29;20044;-81
2021/10/26 19:32:44;;;;;;;5.90;3.80;;;;;;;;;;4887944;29;20036;-81
2021/10/26 19:35:10;;;;;;;5.90;3.60;;;;;;;;;;4901279;29;21981;-82
2021/10/26 19:38:08;;;;;;;5.35;3.58;;;;;;;;;;4908271;29;20092;-83
2021/10/26 19:44:53;;;;;;;6.07;3.58;;;;;;;;;;4881522;29;20070;-83
2021/10/26 20:15:39;;;;;;;5.72;3.10;;;;;;;;;;4955974;23;20465;-80
2021/10/26 20:18:04;;;;;;;5.50;3.22;;;;;;;;;;4893743;29;20040;-80
2021/10/26 20:21:17;;;;;;;6.70;2.95;;;;;;;;;;4889962;29;20036;-80
2021/10/26 20:25:51;;;;;;;4.45;3.05;;;;;;;;;;4893757;29;20036;-80
2021/10/26 20:28:32;;;;;;;4.57;2.75;;;;;;;;;;4893019;29;20032;-80
2021/10/26 20:30:57;;;;;;;7.40;3.00;;;;;;;;;;4881519;29;20017;-80
2021/10/26 20:33:26;;;;;;;5.88;3.35;;;;;;;;;;4894243;29;20025;-80
2021/10/26 20:35:54;;;;;;;6.13;3.20;;;;;;;;;;4883768;29;20029;-80
2021/10/26 20:38:20;;;;;;;6.95;3.75;;;;;;;;;;4890837;29;20028;-80
2021/10/26 20:40:45;;;;;;;5.50;3.38;;;;;;;;;;4893487;29;20553;-80
2021/10/26 20:43:11;;;;;;;5.25;3.58;;;;;;;;;;4891769;29;20472;-80
2021/10/26 20:45:36;;;;;;;4.40;2.90;;;;;;;;;;4894090;29;20446;-81
2021/10/26 20:48:01;;;;;;;7.50;3.70;;;;;;;;;;4897744;29;20520;-80
2021/10/26 20:50:30;;;;;;;4.85;3.33;;;;;;;;;;4897264;29;20103;-80
2021/10/26 20:52:57;;;;;;;6.03;3.22;;;;;;;;;;4907690;29;20028;-80
2021/10/26 20:55:24;;;;;;;5.88;3.25;;;;;;;;;;4897271;29;20111;-81
2021/10/26 20:57:50;;;;;;;4.22;3.25;;;;;;;;;;4892566;29;20033;-80
2021/10/26 21:00:15;;;;;;;4.50;3.20;;;;;;;;;;4904771;29;20533;-80
2021/10/26 21:02:40;;;;;;;5.85;3.65;;;;;;;;;;4896694;29;20442;-80
2021/10/26 21:05:06;;;;;;;5.45;3.25;;;;;;;;;;4897793;29;20035;-80
2021/10/26 21:07:32;;;;;;;4.90;3.05;;;;;;;;;;4898385;29;20377;-80
2021/10/26 21:09:57;;;;;;;5.50;3.30;;;;;;;;;;4881516;29;20501;-81
2021/10/26 21:12:23;;;;;;;5.70;3.60;;;;;;;;;;4910948;29;20020;-81
2021/10/26 21:14:48;;;;;;;5.60;4.28;;;;;;;;;;4902302;29;20036;-80
2021/10/26 21:17:14;;;;;;;5.05;3.80;;;;;;;;;;4897581;29;20028;-80
2021/10/26 21:19:40;;;;;;;6.65;4.63;;;;;;;;;;4900547;29;20032;-80
2021/10/26 21:22:05;;;;;;;8.80;6.03;;;;;;;;;;4912293;29;20052;-80
2021/10/26 21:24:30;;;;;;;9.45;6.13;;;;;;;;;;4911380;29;20533;-81
2021/10/26 21:26:56;;;;;;;10.38;6.93;;;;;;;;;;4910274;29;20059;-80
2021/10/26 21:29:21;;;;;;;8.48;6.75;;;;;;;;;;4909211;29;20102;-80
2021/10/26 21:31:47;;;;;;;11.75;7.32;;;;;;;;;;4909000;29;20453;-80
2021/10/26 21:34:27;;;;;;;12.90;8.25;;;;;;;;;;4896999;29;20116;-80
2021/10/26 21:37:04;;;;;;;8.85;7.32;;;;;;;;;;4906043;29;20033;-80
2021/10/26 21:39:30;;;;;;;7.95;6.82;;;;;;;;;;4899496;29;20046;-80
2021/10/26 21:41:55;;;;;;;8.25;6.47;;;;;;;;;;4907331;29;20107;-80
2021/10/26 21:44:21;;;;;;;9.65;6.82;;;;;;;;;;4893397;29;20521;-80
2021/10/26 21:46:46;;;;;;;11.10;7.40;;;;;;;;;;4890953;29;20136;-80
2021/10/26 21:49:12;;;;;;;9.13;6.30;;;;;;;;;;4885852;29;20417;-81
2021/10/26 21:51:37;;;;;;;10.05;5.93;;;;;;;;;;4902170;29;20060;-80
2021/10/26 21:54:04;;;;;;;10.73;5.13;;;;;;;;;;4900652;29;20032;-80
2021/10/26 21:56:29;;;;;;;9.07;6.53;;;;;;;;;;4905626;29;20028;-80
2021/10/26 21:58:55;;;;;;;9.32;6.00;;;;;;;;;;4907203;29;20043;-80
2021/10/26 22:01:21;;;;;;;10.55;5.10;;;;;;;;;;4894173;29;20092;-81
2021/10/26 22:03:46;;;;;;;5.88;4.68;;;;;;;;;;4910600;29;20028;-80
2021/10/26 22:06:12;;;;;;;9.32;5.65;;;;;;;;;;4899967;29;20042;-80
2021/10/26 22:08:40;;;;;;;9.98;5.80;;;;;;;;;;4905907;29;20024;-81
2021/10/26 22:11:07;;;;;;;8.35;5.97;;;;;;;;;;4887641;29;20108;-80
2021/10/26 22:13:32;;;;;;;7.40;4.22;;;;;;;;;;4899154;29;20024;-80
2021/10/26 22:16:05;;;;;;;5.82;4.53;;;;;;;;;;4911936;29;20032;-80
2021/10/26 22:18:33;;;;;;;5.75;4.30;;;;;;;;;;4899591;29;20032;-80
2021/10/26 22:20:59;;;;;;;6.18;4.53;;;;;;;;;;4900597;29;20059;-80
2021/10/26 22:23:25;;;;;;;6.30;4.03;;;;;;;;;;4906356;29;20465;-80
2021/10/26 22:25:50;;;;;;;8.18;4.68;;;;;;;;;;4916728;29;20114;-80
2021/10/26 22:28:15;;;;;;;10.50;5.55;;;;;;;;;;4899440;29;20426;-80
2021/10/26 22:30:41;;;;;;;8.07;5.70;;;;;;;;;;4903395;29;20462;-81
2021/10/26 22:33:06;;;;;;;7.20;5.38;;;;;;;;;;4906559;29;20398;-80
2021/10/26 22:35:31;;;;;;;7.78;5.32;;;;;;;;;;4912119;29;20131;-80
2021/10/26 22:37:58;;;;;;;8.70;5.22;;;;;;;;;;4911577;29;20032;-80
2021/10/26 22:40:23;;;;;;;7.38;5.40;;;;;;;;;;4897422;29;20032;-80
2021/10/26 22:42:49;;;;;;;6.93;5.40;;;;;;;;;;4903258;29;20044;-80
2021/10/26 22:45:15;;;;;;;6.47;5.30;;;;;;;;;;4916857;29;20043;-80
2021/10/26 22:47:40;;;;;;;5.57;4.50;;;;;;;;;;4904104;29;20036;-80
2021/10/26 22:50:05;;;;;;;6.72;4.80;;;;;;;;;;4906236;29;20511;-80
2021/10/26 22:52:31;;;;;;;8.27;4.90;;;;;;;;;;4902296;29;20020;-80
2021/10/26 22:54:57;;;;;;;7.32;4.80;;;;;;;;;;4900182;29;20071;-80
2021/10/26 22:57:22;;;;;;;7.82;5.75;;;;;;;;;;4901706;29;20035;-79
2021/10/26 22:59:48;;;;;;;8.40;5.57;;;;;;;;;;4901147;29;20041;-79
2021/10/26 23:02:16;;;;;;;7.97;6.07;;;;;;;;;;4897501;29;20119;-80
2021/10/26 23:04:41;;;;;;;8.75;6.30;;;;;;;;;;4904813;29;20024;-80
2021/10/26 23:07:06;;;;;;;6.35;5.65;;;;;;;;;;4896275;29;20144;-79
2021/10/26 23:09:32;;;;;;;8.93;6.10;;;;;;;;;;4902575;29;20128;-80
2021/10/26 23:11:57;;;;;;;8.00;5.90;;;;;;;;;;4901163;29;20048;-79
2021/10/26 23:14:23;;;;;;;9.90;6.55;;;;;;;;;;4901802;29;20063;-79
2021/10/26 23:16:48;;;;;;;8.82;6.20;;;;;;;;;;4909915;29;20087;-80
2021/10/26 23:19:14;;;;;;;9.77;6.45;;;;;;;;;;4911868;29;20037;-80
2021/10/26 23:21:40;;;;;;;9.13;6.22;;;;;;;;;;4917202;29;20031;-79
2021/10/26 23:24:06;;;;;;;9.45;6.57;;;;;;;;;;4904722;29;20032;-80
2021/10/26 23:26:31;;;;;;;9.48;6.25;;;;;;;;;;4905885;29;20033;-80
2021/10/26 23:28:56;;;;;;;10.13;6.85;;;;;;;;;;4890302;29;20039;-80
2021/10/26 23:31:22;;;;;;;9.68;6.38;;;;;;;;;;4884056;29;20043;-80
2021/10/26 23:33:47;;;;;;;6.60;5.90;;;;;;;;;;4882545;29;20025;-80
2021/10/26 23:36:13;;;;;;;7.57;6.40;;;;;;;;;;4882128;29;20029;-80
2021/10/26 23:38:38;;;;;;;8.60;6.40;;;;;;;;;;4899902;29;20024;-80
2021/10/26 23:41:03;;;;;;;7.90;6.20;;;;;;;;;;4900397;29;20024;-80
2021/10/26 23:43:28;;;;;;;7.45;5.88;;;;;;;;;;4901981;29;20079;-80
2021/10/26 23:45:55;;;;;;;6.43;5.50;;;;;;;;;;4900252;29;20044;-80
2021/10/26 23:48:21;;;;;;;8.13;6.28;;;;;;;;;;4895773;29;20090;-80
2021/10/26 23:50:47;;;;;;;8.30;6.13;;;;;;;;;;4902158;29;20126;-80
2021/10/26 23:53:13;;;;;;;6.57;5.57;;;;;;;;;;4900358;29;20107;-80
2021/10/26 23:55:38;;;;;;;8.82;5.93;;;;;;;;;;4892482;29;20036;-80
2021/10/26 23:58:04;;;;;;;6.45;5.68;;;;;;;;;;4881802;29;20032;-80
